Terminal Aerodrome Forecast
Issued by NWS

Home | Current Version | Previous Version | Text Only | Print | Product List | Glossary On
Versions: 1 2 3 4 5 6 7 8 9 10 11 12 13 14 15 16 17 18
439
FTUS45 KRIW 180529
TAFJAC
TAF
KJAC 180529Z 1806/1906 29009KT P6SM SCT040
     FM181100 20008KT P6SM BKN040 BKN080
     FM182300 VRB06KT P6SM SCT040 BKN110
      AMD LTD TO CLD VIS AND WIND=

USA.gov is the U.S. government's official web portal to all federal, state and local government web resources and services.